sensor_id;sensor_type;location;lat;lon;timestamp;P1;durP1;ratioP1;P2;durP2;ratioP2
21843;SDS011;11084;52.482;9.108;2022-08-23T00:01:48;7.23;;;1.90;;
21843;SDS011;11084;52.482;9.108;2022-08-23T00:04:22;3.80;;;1.37;;
21843;SDS011;11084;52.482;9.108;2022-08-23T00:06:52;7.33;;;1.70;;
21843;SDS011;11084;52.482;9.108;2022-08-23T00:09:20;2.47;;;1.40;;
21843;SDS011;11084;52.482;9.108;2022-08-23T00:11:51;5.30;;;1.87;;
21843;SDS011;11084;52.482;9.108;2022-08-23T00:14:42;3.27;;;1.37;;
21843;SDS011;11084;52.482;9.108;2022-08-23T00:17:15;6.23;;;1.90;;
21843;SDS011;11084;52.482;9.108;2022-08-23T00:19:42;3.27;;;1.60;;
21843;SDS011;11084;52.482;9.108;2022-08-23T00:22:10;8.87;;;2.00;;
21843;SDS011;11084;52.482;9.108;2022-08-23T00:24:38;4.63;;;1.63;;
21843;SDS011;11084;52.482;9.108;2022-08-23T00:27:11;3.70;;;2.00;;
21843;SDS011;11084;52.482;9.108;2022-08-23T00:29:45;7.67;;;1.90;;
21843;SDS011;11084;52.482;9.108;2022-08-23T00:32:22;2.13;;;1.47;;
21843;SDS011;11084;52.482;9.108;2022-08-23T00:34:58;4.40;;;1.47;;
21843;SDS011;11084;52.482;9.108;2022-08-23T00:37:25;4.03;;;2.00;;
21843;SDS011;11084;52.482;9.108;2022-08-23T00:39:52;10.20;;;1.87;;
21843;SDS011;11084;52.482;9.108;2022-08-23T00:42:39;2.67;;;1.70;;
21843;SDS011;11084;52.482;9.108;2022-08-23T00:45:56;1.90;;;1.57;;
21843;SDS011;11084;52.482;9.108;2022-08-23T00:49:31;2.43;;;1.60;;
21843;SDS011;11084;52.482;9.108;2022-08-23T00:52:04;4.83;;;2.10;;
21843;SDS011;11084;52.482;9.108;2022-08-23T00:54:38;4.13;;;1.70;;
21843;SDS011;11084;52.482;9.108;2022-08-23T00:57:11;13.53;;;1.70;;
21843;SDS011;11084;52.482;9.108;2022-08-23T00:59:40;4.27;;;1.90;;
21843;SDS011;11084;52.482;9.108;2022-08-23T01:02:06;6.47;;;1.90;;
21843;SDS011;11084;52.482;9.108;2022-08-23T01:04:36;9.13;;;2.07;;
21843;SDS011;11084;52.482;9.108;2022-08-23T01:09:56;5.97;;;2.17;;
21843;SDS011;11084;52.482;9.108;2022-08-23T01:12:35;3.27;;;1.87;;
21843;SDS011;11084;52.482;9.108;2022-08-23T01:15:10;7.47;;;1.63;;
21843;SDS011;11084;52.482;9.108;2022-08-23T01:17:54;4.77;;;1.87;;
21843;SDS011;11084;52.482;9.108;2022-08-23T01:20:31;3.27;;;1.90;;
21843;SDS011;11084;52.482;9.108;2022-08-23T01:26:07;3.07;;;1.60;;
21843;SDS011;11084;52.482;9.108;2022-08-23T01:28:36;5.60;;;1.87;;
21843;SDS011;11084;52.482;9.108;2022-08-23T01:31:05;6.30;;;1.73;;
21843;SDS011;11084;52.482;9.108;2022-08-23T01:33:33;3.40;;;1.83;;
21843;SDS011;11084;52.482;9.108;2022-08-23T01:36:05;5.20;;;2.10;;
21843;SDS011;11084;52.482;9.108;2022-08-23T01:38:34;3.57;;;1.67;;
21843;SDS011;11084;52.482;9.108;2022-08-23T01:41:01;5.77;;;1.60;;
21843;SDS011;11084;52.482;9.108;2022-08-23T01:43:28;6.97;;;2.03;;
21843;SDS011;11084;52.482;9.108;2022-08-23T01:45:54;2.33;;;1.80;;
21843;SDS011;11084;52.482;9.108;2022-08-23T01:48:22;8.23;;;2.37;;
21843;SDS011;11084;52.482;9.108;2022-08-23T01:50:49;4.93;;;2.03;;
21843;SDS011;11084;52.482;9.108;2022-08-23T01:53:16;4.63;;;1.97;;
21843;SDS011;11084;52.482;9.108;2022-08-23T01:55:46;3.87;;;2.07;;
21843;SDS011;11084;52.482;9.108;2022-08-23T01:58:15;2.73;;;1.77;;
21843;SDS011;11084;52.482;9.108;2022-08-23T02:00:42;4.37;;;1.90;;
21843;SDS011;11084;52.482;9.108;2022-08-23T02:03:11;6.80;;;2.43;;
21843;SDS011;11084;52.482;9.108;2022-08-23T02:05:39;5.23;;;1.83;;
21843;SDS011;11084;52.482;9.108;2022-08-23T02:08:08;4.33;;;1.90;;
21843;SDS011;11084;52.482;9.108;2022-08-23T02:10:55;4.50;;;2.23;;
21843;SDS011;11084;52.482;9.108;2022-08-23T02:13:24;2.13;;;1.70;;
21843;SDS011;11084;52.482;9.108;2022-08-23T02:15:50;7.40;;;2.07;;
21843;SDS011;11084;52.482;9.108;2022-08-23T02:18:18;3.50;;;2.20;;
21843;SDS011;11084;52.482;9.108;2022-08-23T02:20:48;9.40;;;1.93;;
21843;SDS011;11084;52.482;9.108;2022-08-23T02:23:16;9.13;;;1.90;;
21843;SDS011;11084;52.482;9.108;2022-08-23T02:25:43;4.70;;;1.80;;
21843;SDS011;11084;52.482;9.108;2022-08-23T02:28:10;6.20;;;2.00;;
21843;SDS011;11084;52.482;9.108;2022-08-23T02:30:37;7.60;;;1.93;;
21843;SDS011;11084;52.482;9.108;2022-08-23T02:33:06;5.83;;;2.00;;
21843;SDS011;11084;52.482;9.108;2022-08-23T02:35:33;5.90;;;2.10;;
21843;SDS011;11084;52.482;9.108;2022-08-23T02:38:03;6.13;;;1.97;;
21843;SDS011;11084;52.482;9.108;2022-08-23T02:40:32;5.20;;;1.77;;
21843;SDS011;11084;52.482;9.108;2022-08-23T02:42:59;2.87;;;1.80;;
21843;SDS011;11084;52.482;9.108;2022-08-23T02:45:27;6.60;;;2.03;;
21843;SDS011;11084;52.482;9.108;2022-08-23T02:47:54;2.57;;;1.50;;
21843;SDS011;11084;52.482;9.108;2022-08-23T02:50:31;4.60;;;1.90;;
21843;SDS011;11084;52.482;9.108;2022-08-23T02:52:57;4.87;;;2.03;;
21843;SDS011;11084;52.482;9.108;2022-08-23T02:55:24;5.43;;;1.63;;
21843;SDS011;11084;52.482;9.108;2022-08-23T02:57:50;4.00;;;1.90;;
21843;SDS011;11084;52.482;9.108;2022-08-23T03:00:17;7.97;;;1.97;;
21843;SDS011;11084;52.482;9.108;2022-08-23T03:02:44;4.47;;;1.83;;
21843;SDS011;11084;52.482;9.108;2022-08-23T03:05:11;2.97;;;1.80;;
21843;SDS011;11084;52.482;9.108;2022-08-23T03:07:38;4.70;;;1.53;;
21843;SDS011;11084;52.482;9.108;2022-08-23T03:10:06;11.17;;;2.03;;
21843;SDS011;11084;52.482;9.108;2022-08-23T03:12:36;3.43;;;1.87;;
21843;SDS011;11084;52.482;9.108;2022-08-23T03:15:03;3.50;;;2.00;;
21843;SDS011;11084;52.482;9.108;2022-08-23T03:17:32;3.87;;;2.00;;
21843;SDS011;11084;52.482;9.108;2022-08-23T03:20:00;8.80;;;1.97;;
21843;SDS011;11084;52.482;9.108;2022-08-23T03:22:26;3.83;;;1.97;;
21843;SDS011;11084;52.482;9.108;2022-08-23T03:24:53;11.50;;;2.20;;
21843;SDS011;11084;52.482;9.108;2022-08-23T03:27:23;8.77;;;1.77;;
21843;SDS011;11084;52.482;9.108;2022-08-23T03:29:50;4.33;;;1.83;;
21843;SDS011;11084;52.482;9.108;2022-08-23T03:32:16;2.60;;;1.80;;
21843;SDS011;11084;52.482;9.108;2022-08-23T03:34:43;2.07;;;1.87;;
21843;SDS011;11084;52.482;9.108;2022-08-23T03:37:09;3.60;;;1.80;;
21843;SDS011;11084;52.482;9.108;2022-08-23T03:39:36;4.97;;;2.27;;
21843;SDS011;11084;52.482;9.108;2022-08-23T03:42:05;5.73;;;1.70;;
21843;SDS011;11084;52.482;9.108;2022-08-23T03:44:32;4.00;;;1.87;;
21843;SDS011;11084;52.482;9.108;2022-08-23T03:47:00;7.57;;;1.83;;
21843;SDS011;11084;52.482;9.108;2022-08-23T03:49:27;5.57;;;1.97;;
21843;SDS011;11084;52.482;9.108;2022-08-23T03:51:55;16.00;;;2.20;;
21843;SDS011;11084;52.482;9.108;2022-08-23T03:54:23;5.60;;;2.10;;
21843;SDS011;11084;52.482;9.108;2022-08-23T03:56:57;4.27;;;2.07;;
21843;SDS011;11084;52.482;9.108;2022-08-23T03:59:32;10.80;;;2.33;;
21843;SDS011;11084;52.482;9.108;2022-08-23T04:02:06;12.67;;;2.20;;
21843;SDS011;11084;52.482;9.108;2022-08-23T04:04:34;6.53;;;2.40;;
21843;SDS011;11084;52.482;9.108;2022-08-23T04:07:33;3.77;;;1.83;;
21843;SDS011;11084;52.482;9.108;2022-08-23T04:10:01;4.80;;;2.13;;
21843;SDS011;11084;52.482;9.108;2022-08-23T04:12:33;2.83;;;2.00;;
21843;SDS011;11084;52.482;9.108;2022-08-23T04:15:01;18.83;;;2.20;;
21843;SDS011;11084;52.482;9.108;2022-08-23T04:17:32;2.37;;;1.90;;
21843;SDS011;11084;52.482;9.108;2022-08-23T04:19:59;7.27;;;2.40;;
21843;SDS011;11084;52.482;9.108;2022-08-23T04:22:25;5.53;;;2.33;;
21843;SDS011;11084;52.482;9.108;2022-08-23T04:24:52;3.80;;;2.53;;
21843;SDS011;11084;52.482;9.108;2022-08-23T04:27:20;2.80;;;1.90;;
21843;SDS011;11084;52.482;9.108;2022-08-23T04:29:47;2.07;;;1.70;;
21843;SDS011;11084;52.482;9.108;2022-08-23T04:32:17;3.43;;;1.87;;
21843;SDS011;11084;52.482;9.108;2022-08-23T04:34:43;6.10;;;2.33;;
21843;SDS011;11084;52.482;9.108;2022-08-23T04:37:09;2.80;;;1.97;;
21843;SDS011;11084;52.482;9.108;2022-08-23T04:39:38;7.13;;;2.10;;
21843;SDS011;11084;52.482;9.108;2022-08-23T04:42:29;7.73;;;2.23;;
21843;SDS011;11084;52.482;9.108;2022-08-23T04:44:55;8.77;;;2.07;;
21843;SDS011;11084;52.482;9.108;2022-08-23T04:47:28;6.03;;;1.97;;
21843;SDS011;11084;52.482;9.108;2022-08-23T04:49:59;2.93;;;1.80;;
21843;SDS011;11084;52.482;9.108;2022-08-23T04:52:25;9.47;;;2.20;;
21843;SDS011;11084;52.482;9.108;2022-08-23T04:54:55;3.20;;;1.80;;
21843;SDS011;11084;52.482;9.108;2022-08-23T04:57:59;4.27;;;1.60;;
21843;SDS011;11084;52.482;9.108;2022-08-23T05:00:34;4.27;;;1.87;;
21843;SDS011;11084;52.482;9.108;2022-08-23T05:03:00;4.77;;;1.87;;
21843;SDS011;11084;52.482;9.108;2022-08-23T05:05:30;5.27;;;2.23;;
21843;SDS011;11084;52.482;9.108;2022-08-23T05:08:00;3.73;;;1.67;;
21843;SDS011;11084;52.482;9.108;2022-08-23T05:10:29;4.27;;;2.17;;
21843;SDS011;11084;52.482;9.108;2022-08-23T05:12:56;3.67;;;1.97;;
21843;SDS011;11084;52.482;9.108;2022-08-23T05:15:23;4.93;;;1.70;;
21843;SDS011;11084;52.482;9.108;2022-08-23T05:17:57;8.23;;;2.03;;
21843;SDS011;11084;52.482;9.108;2022-08-23T05:20:24;5.67;;;1.97;;
21843;SDS011;11084;52.482;9.108;2022-08-23T05:22:50;4.23;;;2.00;;
21843;SDS011;11084;52.482;9.108;2022-08-23T05:25:27;12.20;;;2.07;;
21843;SDS011;11084;52.482;9.108;2022-08-23T05:28:23;6.63;;;1.90;;
21843;SDS011;11084;52.482;9.108;2022-08-23T05:30:56;6.20;;;1.80;;
21843;SDS011;11084;52.482;9.108;2022-08-23T05:33:27;4.13;;;2.00;;
21843;SDS011;11084;52.482;9.108;2022-08-23T05:35:56;8.17;;;1.93;;
21843;SDS011;11084;52.482;9.108;2022-08-23T05:38:23;7.70;;;1.80;;
21843;SDS011;11084;52.482;9.108;2022-08-23T05:40:54;4.27;;;1.80;;
21843;SDS011;11084;52.482;9.108;2022-08-23T05:43:22;4.90;;;1.83;;
21843;SDS011;11084;52.482;9.108;2022-08-23T05:46:00;5.53;;;2.20;;
21843;SDS011;11084;52.482;9.108;2022-08-23T05:48:41;6.20;;;1.60;;
21843;SDS011;11084;52.482;9.108;2022-08-23T05:51:16;4.20;;;1.83;;
21843;SDS011;11084;52.482;9.108;2022-08-23T05:53:52;2.30;;;1.77;;
21843;SDS011;11084;52.482;9.108;2022-08-23T05:56:42;3.27;;;1.80;;
21843;SDS011;11084;52.482;9.108;2022-08-23T05:59:14;9.73;;;2.30;;
21843;SDS011;11084;52.482;9.108;2022-08-23T06:01:48;12.00;;;1.97;;
21843;SDS011;11084;52.482;9.108;2022-08-23T06:04:19;4.03;;;1.93;;
21843;SDS011;11084;52.482;9.108;2022-08-23T06:06:54;11.63;;;2.40;;
21843;SDS011;11084;52.482;9.108;2022-08-23T06:09:23;7.77;;;2.30;;
21843;SDS011;11084;52.482;9.108;2022-08-23T06:11:49;4.93;;;1.43;;
21843;SDS011;11084;52.482;9.108;2022-08-23T06:14:17;2.73;;;1.90;;
21843;SDS011;11084;52.482;9.108;2022-08-23T06:16:50;5.50;;;1.97;;
21843;SDS011;11084;52.482;9.108;2022-08-23T06:19:21;5.53;;;2.07;;
21843;SDS011;11084;52.482;9.108;2022-08-23T06:21:51;9.13;;;2.10;;
21843;SDS011;11084;52.482;9.108;2022-08-23T06:24:24;3.57;;;1.43;;
21843;SDS011;11084;52.482;9.108;2022-08-23T06:27:02;5.17;;;2.10;;
21843;SDS011;11084;52.482;9.108;2022-08-23T06:29:30;5.10;;;1.90;;
21843;SDS011;11084;52.482;9.108;2022-08-23T06:32:22;3.70;;;1.63;;
21843;SDS011;11084;52.482;9.108;2022-08-23T06:35:08;5.40;;;1.90;;
21843;SDS011;11084;52.482;9.108;2022-08-23T06:37:53;9.13;;;2.00;;
21843;SDS011;11084;52.482;9.108;2022-08-23T06:40:39;1.77;;;1.67;;
21843;SDS011;11084;52.482;9.108;2022-08-23T06:43:38;4.63;;;2.20;;
21843;SDS011;11084;52.482;9.108;2022-08-23T06:46:28;9.33;;;2.07;;
21843;SDS011;11084;52.482;9.108;2022-08-23T06:48:55;4.77;;;1.70;;
21843;SDS011;11084;52.482;9.108;2022-08-23T06:51:25;13.03;;;2.07;;
21843;SDS011;11084;52.482;9.108;2022-08-23T06:54:01;2.40;;;1.57;;
21843;SDS011;11084;52.482;9.108;2022-08-23T06:56:55;6.60;;;1.90;;
21843;SDS011;11084;52.482;9.108;2022-08-23T06:59:27;3.87;;;1.93;;
21843;SDS011;11084;52.482;9.108;2022-08-23T07:02:17;3.33;;;1.70;;
21843;SDS011;11084;52.482;9.108;2022-08-23T07:04:55;3.03;;;1.73;;
21843;SDS011;11084;52.482;9.108;2022-08-23T07:07:43;6.03;;;2.00;;
21843;SDS011;11084;52.482;9.108;2022-08-23T07:10:10;4.10;;;2.00;;
21843;SDS011;11084;52.482;9.108;2022-08-23T07:12:41;4.37;;;2.50;;
21843;SDS011;11084;52.482;9.108;2022-08-23T07:15:09;3.47;;;1.77;;
21843;SDS011;11084;52.482;9.108;2022-08-23T07:17:38;4.40;;;1.87;;
21843;SDS011;11084;52.482;9.108;2022-08-23T07:20:04;12.43;;;2.40;;
21843;SDS011;11084;52.482;9.108;2022-08-23T07:22:33;5.03;;;1.67;;
21843;SDS011;11084;52.482;9.108;2022-08-23T07:25:01;8.07;;;2.50;;
21843;SDS011;11084;52.482;9.108;2022-08-23T07:27:28;4.70;;;1.80;;
21843;SDS011;11084;52.482;9.108;2022-08-23T07:30:03;2.17;;;1.63;;
21843;SDS011;11084;52.482;9.108;2022-08-23T07:32:36;3.43;;;1.87;;
21843;SDS011;11084;52.482;9.108;2022-08-23T07:35:22;3.40;;;1.53;;
21843;SDS011;11084;52.482;9.108;2022-08-23T07:37:51;5.27;;;1.80;;
21843;SDS011;11084;52.482;9.108;2022-08-23T07:40:17;5.57;;;1.70;;
21843;SDS011;11084;52.482;9.108;2022-08-23T07:42:45;5.20;;;1.90;;
21843;SDS011;11084;52.482;9.108;2022-08-23T07:45:13;3.53;;;2.10;;
21843;SDS011;11084;52.482;9.108;2022-08-23T07:47:47;6.03;;;1.83;;
21843;SDS011;11084;52.482;9.108;2022-08-23T07:50:13;4.00;;;1.77;;
21843;SDS011;11084;52.482;9.108;2022-08-23T07:52:39;6.53;;;1.70;;
21843;SDS011;11084;52.482;9.108;2022-08-23T07:55:06;9.13;;;2.17;;
21843;SDS011;11084;52.482;9.108;2022-08-23T07:57:54;7.43;;;1.80;;
21843;SDS011;11084;52.482;9.108;2022-08-23T08:00:26;9.83;;;2.00;;
21843;SDS011;11084;52.482;9.108;2022-08-23T08:03:03;5.37;;;1.77;;
21843;SDS011;11084;52.482;9.108;2022-08-23T08:05:46;3.57;;;1.50;;
21843;SDS011;11084;52.482;9.108;2022-08-23T08:08:13;6.63;;;1.80;;
21843;SDS011;11084;52.482;9.108;2022-08-23T08:10:40;4.13;;;2.03;;
21843;SDS011;11084;52.482;9.108;2022-08-23T08:13:08;3.00;;;1.30;;
21843;SDS011;11084;52.482;9.108;2022-08-23T08:15:39;3.90;;;1.90;;
21843;SDS011;11084;52.482;9.108;2022-08-23T08:18:10;5.87;;;1.70;;
21843;SDS011;11084;52.482;9.108;2022-08-23T08:20:56;10.70;;;2.00;;
21843;SDS011;11084;52.482;9.108;2022-08-23T08:23:41;10.10;;;1.80;;
21843;SDS011;11084;52.482;9.108;2022-08-23T08:26:27;12.20;;;1.70;;
21843;SDS011;11084;52.482;9.108;2022-08-23T08:28:57;2.17;;;1.50;;
21843;SDS011;11084;52.482;9.108;2022-08-23T08:31:24;3.07;;;1.53;;
21843;SDS011;11084;52.482;9.108;2022-08-23T08:33:51;2.70;;;1.67;;
21843;SDS011;11084;52.482;9.108;2022-08-23T08:39:07;3.17;;;1.60;;
21843;SDS011;11084;52.482;9.108;2022-08-23T08:44:50;6.80;;;1.70;;
21843;SDS011;11084;52.482;9.108;2022-08-23T08:47:32;3.70;;;1.67;;
21843;SDS011;11084;52.482;9.108;2022-08-23T08:52:37;5.40;;;1.60;;
21843;SDS011;11084;52.482;9.108;2022-08-23T08:55:23;5.37;;;1.53;;
21843;SDS011;11084;52.482;9.108;2022-08-23T08:57:55;3.43;;;1.40;;
21843;SDS011;11084;52.482;9.108;2022-08-23T09:00:32;2.40;;;1.53;;
21843;SDS011;11084;52.482;9.108;2022-08-23T09:03:03;4.57;;;1.40;;
21843;SDS011;11084;52.482;9.108;2022-08-23T09:05:43;8.30;;;1.60;;
21843;SDS011;11084;52.482;9.108;2022-08-23T09:17:05;2.07;;;1.60;;
21843;SDS011;11084;52.482;9.108;2022-08-23T09:19:48;11.87;;;1.57;;
21843;SDS011;11084;52.482;9.108;2022-08-23T09:22:24;4.80;;;1.30;;
21843;SDS011;11084;52.482;9.108;2022-08-23T09:25:00;2.27;;;1.50;;
21843;SDS011;11084;52.482;9.108;2022-08-23T09:27:39;1.60;;;1.43;;
21843;SDS011;11084;52.482;9.108;2022-08-23T09:30:12;4.80;;;1.30;;
21843;SDS011;11084;52.482;9.108;2022-08-23T09:32:43;2.17;;;1.43;;
21843;SDS011;11084;52.482;9.108;2022-08-23T09:35:19;6.40;;;1.70;;
21843;SDS011;11084;52.482;9.108;2022-08-23T09:38:17;5.60;;;1.40;;
21843;SDS011;11084;52.482;9.108;2022-08-23T09:40:48;5.47;;;1.40;;
21843;SDS011;11084;52.482;9.108;2022-08-23T09:43:24;5.00;;;1.57;;
21843;SDS011;11084;52.482;9.108;2022-08-23T09:45:55;2.23;;;1.40;;
21843;SDS011;11084;52.482;9.108;2022-08-23T09:48:39;6.20;;;1.57;;
21843;SDS011;11084;52.482;9.108;2022-08-23T09:51:33;1.40;;;1.30;;
21843;SDS011;11084;52.482;9.108;2022-08-23T09:54:18;2.23;;;1.30;;
21843;SDS011;11084;52.482;9.108;2022-08-23T09:57:05;1.73;;;1.13;;
21843;SDS011;11084;52.482;9.108;2022-08-23T10:08:05;2.27;;;1.17;;
21843;SDS011;11084;52.482;9.108;2022-08-23T10:10:37;5.10;;;1.60;;
21843;SDS011;11084;52.482;9.108;2022-08-23T10:13:15;2.47;;;1.37;;
21843;SDS011;11084;52.482;9.108;2022-08-23T10:15:46;4.50;;;1.40;;
21843;SDS011;11084;52.482;9.108;2022-08-23T10:27:20;4.67;;;1.20;;
21843;SDS011;11084;52.482;9.108;2022-08-23T10:30:41;1.85;;;1.30;;
21843;SDS011;11084;52.482;9.108;2022-08-23T10:33:18;1.20;;;0.98;;
21843;SDS011;11084;52.482;9.108;2022-08-23T10:38:59;9.90;;;1.40;;
21843;SDS011;11084;52.482;9.108;2022-08-23T10:41:37;2.97;;;1.17;;
21843;SDS011;11084;52.482;9.108;2022-08-23T10:47:26;2.55;;;1.17;;
21843;SDS011;11084;52.482;9.108;2022-08-23T10:49:55;1.83;;;1.20;;
21843;SDS011;11084;52.482;9.108;2022-08-23T10:52:32;3.63;;;1.30;;
21843;SDS011;11084;52.482;9.108;2022-08-23T10:55:14;2.42;;;1.40;;
21843;SDS011;11084;52.482;9.108;2022-08-23T10:58:02;4.55;;;1.17;;
21843;SDS011;11084;52.482;9.108;2022-08-23T11:00:33;2.00;;;1.10;;
21843;SDS011;11084;52.482;9.108;2022-08-23T11:09:03;2.40;;;1.08;;
21843;SDS011;11084;52.482;9.108;2022-08-23T11:17:28;1.45;;;1.10;;
21843;SDS011;11084;52.482;9.108;2022-08-23T11:34:24;1.83;;;1.20;;
21843;SDS011;11084;52.482;9.108;2022-08-23T11:42:33;1.52;;;1.13;;
21843;SDS011;11084;52.482;9.108;2022-08-23T11:48:35;4.38;;;1.50;;
21843;SDS011;11084;52.482;9.108;2022-08-23T11:53:24;0.77;;;0.77;;
21843;SDS011;11084;52.482;9.108;2022-08-23T12:01:34;2.97;;;1.60;;
21843;SDS011;11084;52.482;9.108;2022-08-23T12:04:04;3.22;;;1.50;;
21843;SDS011;11084;52.482;9.108;2022-08-23T12:06:49;2.25;;;1.10;;
21843;SDS011;11084;52.482;9.108;2022-08-23T12:19:50;2.75;;;1.30;;
21843;SDS011;11084;52.482;9.108;2022-08-23T12:22:56;3.58;;;1.20;;
21843;SDS011;11084;52.482;9.108;2022-08-23T12:25:30;2.83;;;1.15;;
21843;SDS011;11084;52.482;9.108;2022-08-23T12:28:02;1.15;;;1.00;;
21843;SDS011;11084;52.482;9.108;2022-08-23T12:30:36;0.90;;;0.90;;
21843;SDS011;11084;52.482;9.108;2022-08-23T12:39:18;1.35;;;1.08;;
21843;SDS011;11084;52.482;9.108;2022-08-23T12:41:50;2.13;;;1.25;;
21843;SDS011;11084;52.482;9.108;2022-08-23T12:44:35;2.83;;;1.20;;
21843;SDS011;11084;52.482;9.108;2022-08-23T12:47:15;3.05;;;1.23;;
21843;SDS011;11084;52.482;9.108;2022-08-23T12:49:58;1.80;;;1.20;;
21843;SDS011;11084;52.482;9.108;2022-08-23T12:52:58;3.13;;;1.05;;
21843;SDS011;11084;52.482;9.108;2022-08-23T12:55:49;3.85;;;1.30;;
21843;SDS011;11084;52.482;9.108;2022-08-23T12:58:24;1.58;;;1.20;;
21843;SDS011;11084;52.482;9.108;2022-08-23T13:00:57;6.05;;;1.13;;
21843;SDS011;11084;52.482;9.108;2022-08-23T13:06:07;3.85;;;1.33;;
21843;SDS011;11084;52.482;9.108;2022-08-23T13:08:47;2.00;;;1.13;;
21843;SDS011;11084;52.482;9.108;2022-08-23T13:11:26;1.48;;;0.95;;
21843;SDS011;11084;52.482;9.108;2022-08-23T13:13:57;7.60;;;1.33;;
21843;SDS011;11084;52.482;9.108;2022-08-23T13:24:57;4.43;;;1.13;;
21843;SDS011;11084;52.482;9.108;2022-08-23T13:32:48;4.75;;;1.52;;
21843;SDS011;11084;52.482;9.108;2022-08-23T13:40:51;5.25;;;1.33;;
21843;SDS011;11084;52.482;9.108;2022-08-23T13:43:55;1.90;;;1.00;;
21843;SDS011;11084;52.482;9.108;2022-08-23T13:46:25;5.68;;;1.10;;
21843;SDS011;11084;52.482;9.108;2022-08-23T13:49:04;2.10;;;0.80;;
21843;SDS011;11084;52.482;9.108;2022-08-23T13:51:39;2.17;;;1.00;;
21843;SDS011;11084;52.482;9.108;2022-08-23T13:54:23;11.02;;;1.10;;
21843;SDS011;11084;52.482;9.108;2022-08-23T13:56:55;6.88;;;1.35;;
21843;SDS011;11084;52.482;9.108;2022-08-23T13:59:36;1.77;;;0.90;;
21843;SDS011;11084;52.482;9.108;2022-08-23T14:02:23;1.80;;;0.90;;
21843;SDS011;11084;52.482;9.108;2022-08-23T14:04:50;1.08;;;0.95;;
21843;SDS011;11084;52.482;9.108;2022-08-23T14:07:16;2.70;;;1.08;;
21843;SDS011;11084;52.482;9.108;2022-08-23T14:09:43;3.90;;;0.73;;
21843;SDS011;11084;52.482;9.108;2022-08-23T14:12:20;4.93;;;1.70;;
21843;SDS011;11084;52.482;9.108;2022-08-23T14:14:50;2.58;;;1.15;;
21843;SDS011;11084;52.482;9.108;2022-08-23T14:17:16;9.25;;;1.02;;
21843;SDS011;11084;52.482;9.108;2022-08-23T14:19:43;0.88;;;0.80;;
21843;SDS011;11084;52.482;9.108;2022-08-23T14:22:11;7.22;;;1.48;;
21843;SDS011;11084;52.482;9.108;2022-08-23T14:24:38;2.08;;;1.05;;
21843;SDS011;11084;52.482;9.108;2022-08-23T14:27:05;7.28;;;1.10;;
21843;SDS011;11084;52.482;9.108;2022-08-23T14:29:32;5.95;;;1.73;;
21843;SDS011;11084;52.482;9.108;2022-08-23T14:32:00;3.42;;;0.93;;
21843;SDS011;11084;52.482;9.108;2022-08-23T14:34:27;1.75;;;0.93;;
21843;SDS011;11084;52.482;9.108;2022-08-23T14:36:54;3.40;;;1.17;;
21843;SDS011;11084;52.482;9.108;2022-08-23T14:39:21;17.48;;;1.58;;
21843;SDS011;11084;52.482;9.108;2022-08-23T14:41:48;1.70;;;0.98;;
21843;SDS011;11084;52.482;9.108;2022-08-23T14:44:15;24.50;;;1.70;;
21843;SDS011;11084;52.482;9.108;2022-08-23T14:46:43;9.63;;;1.10;;
21843;SDS011;11084;52.482;9.108;2022-08-23T14:49:10;4.55;;;1.17;;
21843;SDS011;11084;52.482;9.108;2022-08-23T14:51:39;8.13;;;1.52;;
21843;SDS011;11084;52.482;9.108;2022-08-23T14:54:14;6.97;;;1.17;;
21843;SDS011;11084;52.482;9.108;2022-08-23T14:56:45;2.92;;;1.05;;
21843;SDS011;11084;52.482;9.108;2022-08-23T14:59:11;5.45;;;1.00;;
21843;SDS011;11084;52.482;9.108;2022-08-23T15:01:37;3.97;;;1.00;;
21843;SDS011;11084;52.482;9.108;2022-08-23T15:04:04;4.78;;;0.93;;
21843;SDS011;11084;52.482;9.108;2022-08-23T15:06:32;1.48;;;0.77;;
21843;SDS011;11084;52.482;9.108;2022-08-23T15:08:59;1.75;;;1.02;;
21843;SDS011;11084;52.482;9.108;2022-08-23T15:11:25;3.53;;;0.70;;
21843;SDS011;11084;52.482;9.108;2022-08-23T15:13:52;17.35;;;1.83;;
21843;SDS011;11084;52.482;9.108;2022-08-23T15:16:18;7.40;;;1.00;;
21843;SDS011;11084;52.482;9.108;2022-08-23T15:18:49;5.93;;;1.05;;
21843;SDS011;11084;52.482;9.108;2022-08-23T15:21:17;2.03;;;0.90;;
21843;SDS011;11084;52.482;9.108;2022-08-23T15:23:44;1.38;;;0.90;;
21843;SDS011;11084;52.482;9.108;2022-08-23T15:26:11;1.60;;;0.90;;
21843;SDS011;11084;52.482;9.108;2022-08-23T15:28:40;1.57;;;1.00;;
21843;SDS011;11084;52.482;9.108;2022-08-23T15:31:06;7.60;;;1.47;;
21843;SDS011;11084;52.482;9.108;2022-08-23T15:33:34;1.87;;;1.07;;
21843;SDS011;11084;52.482;9.108;2022-08-23T15:36:00;2.33;;;0.90;;
21843;SDS011;11084;52.482;9.108;2022-08-23T15:38:26;2.00;;;1.00;;
21843;SDS011;11084;52.482;9.108;2022-08-23T15:40:53;2.90;;;1.27;;
21843;SDS011;11084;52.482;9.108;2022-08-23T15:43:20;4.93;;;1.03;;
21843;SDS011;11084;52.482;9.108;2022-08-23T15:45:49;4.10;;;1.00;;
21843;SDS011;11084;52.482;9.108;2022-08-23T15:50:52;1.83;;;1.13;;
21843;SDS011;11084;52.482;9.108;2022-08-23T15:53:19;1.23;;;1.03;;
21843;SDS011;11084;52.482;9.108;2022-08-23T15:55:47;1.73;;;1.00;;
21843;SDS011;11084;52.482;9.108;2022-08-23T15:58:21;1.50;;;0.90;;
21843;SDS011;11084;52.482;9.108;2022-08-23T16:00:50;2.70;;;1.10;;
21843;SDS011;11084;52.482;9.108;2022-08-23T16:03:17;9.07;;;1.07;;
21843;SDS011;11084;52.482;9.108;2022-08-23T16:05:46;2.37;;;0.90;;
21843;SDS011;11084;52.482;9.108;2022-08-23T16:08:18;3.43;;;0.90;;
21843;SDS011;11084;52.482;9.108;2022-08-23T16:10:56;1.77;;;0.90;;
21843;SDS011;11084;52.482;9.108;2022-08-23T16:13:25;3.90;;;0.90;;
21843;SDS011;11084;52.482;9.108;2022-08-23T16:15:53;3.77;;;0.87;;
21843;SDS011;11084;52.482;9.108;2022-08-23T16:18:19;3.93;;;1.33;;
21843;SDS011;11084;52.482;9.108;2022-08-23T16:20:45;1.20;;;1.07;;
21843;SDS011;11084;52.482;9.108;2022-08-23T16:23:11;3.33;;;1.47;;
21843;SDS011;11084;52.482;9.108;2022-08-23T16:25:37;3.07;;;1.30;;
21843;SDS011;11084;52.482;9.108;2022-08-23T16:28:04;2.87;;;0.90;;
21843;SDS011;11084;52.482;9.108;2022-08-23T16:30:31;2.87;;;1.33;;
21843;SDS011;11084;52.482;9.108;2022-08-23T16:32:57;0.93;;;0.90;;
21843;SDS011;11084;52.482;9.108;2022-08-23T16:35:23;1.90;;;1.07;;
21843;SDS011;11084;52.482;9.108;2022-08-23T16:37:49;2.73;;;1.13;;
21843;SDS011;11084;52.482;9.108;2022-08-23T16:40:16;6.30;;;1.10;;
21843;SDS011;11084;52.482;9.108;2022-08-23T16:42:42;4.33;;;1.20;;
21843;SDS011;11084;52.482;9.108;2022-08-23T16:45:08;1.17;;;0.80;;
21843;SDS011;11084;52.482;9.108;2022-08-23T16:47:37;3.70;;;1.10;;
21843;SDS011;11084;52.482;9.108;2022-08-23T16:50:06;2.00;;;0.80;;
21843;SDS011;11084;52.482;9.108;2022-08-23T16:52:34;6.43;;;1.10;;
21843;SDS011;11084;52.482;9.108;2022-08-23T16:55:01;1.10;;;0.80;;
21843;SDS011;11084;52.482;9.108;2022-08-23T16:57:34;1.30;;;0.90;;
21843;SDS011;11084;52.482;9.108;2022-08-23T17:00:00;1.47;;;1.13;;
21843;SDS011;11084;52.482;9.108;2022-08-23T17:02:30;1.60;;;0.90;;
21843;SDS011;11084;52.482;9.108;2022-08-23T17:04:59;4.03;;;1.13;;
21843;SDS011;11084;52.482;9.108;2022-08-23T17:07:31;1.97;;;0.87;;
21843;SDS011;11084;52.482;9.108;2022-08-23T17:09:57;2.93;;;1.50;;
21843;SDS011;11084;52.482;9.108;2022-08-23T17:12:23;4.20;;;0.97;;
21843;SDS011;11084;52.482;9.108;2022-08-23T17:14:51;1.23;;;1.00;;
21843;SDS011;11084;52.482;9.108;2022-08-23T17:17:19;6.43;;;1.10;;
21843;SDS011;11084;52.482;9.108;2022-08-23T17:19:45;1.90;;;0.90;;
21843;SDS011;11084;52.482;9.108;2022-08-23T17:22:11;4.83;;;1.00;;
21843;SDS011;11084;52.482;9.108;2022-08-23T17:24:37;7.87;;;1.03;;
21843;SDS011;11084;52.482;9.108;2022-08-23T17:27:03;2.50;;;1.20;;
21843;SDS011;11084;52.482;9.108;2022-08-23T17:29:30;3.00;;;1.10;;
21843;SDS011;11084;52.482;9.108;2022-08-23T17:31:56;2.90;;;0.90;;